sensor_id;sensor_type;location;lat;lon;timestamp;P1;durP1;ratioP1;P2;durP2;ratioP2
68284;SDS011;55114;52.052;5.238;2023-02-15T00:01:34;36.22;;;14.80;;
68284;SDS011;55114;52.052;5.238;2023-02-15T00:04:01;35.33;;;15.40;;
68284;SDS011;55114;52.052;5.238;2023-02-15T00:06:28;33.38;;;14.38;;
68284;SDS011;55114;52.052;5.238;2023-02-15T00:08:56;36.13;;;14.82;;
68284;SDS011;55114;52.052;5.238;2023-02-15T00:11:23;34.67;;;14.68;;
68284;SDS011;55114;52.052;5.238;2023-02-15T00:14:21;35.58;;;14.10;;
68284;SDS011;55114;52.052;5.238;2023-02-15T00:16:49;35.15;;;14.40;;
68284;SDS011;55114;52.052;5.238;2023-02-15T00:19:18;36.28;;;14.00;;
68284;SDS011;55114;52.052;5.238;2023-02-15T00:21:45;29.73;;;13.03;;
68284;SDS011;55114;52.052;5.238;2023-02-15T00:24:13;34.35;;;14.02;;
68284;SDS011;55114;52.052;5.238;2023-02-15T00:26:41;32.25;;;14.10;;
68284;SDS011;55114;52.052;5.238;2023-02-15T00:29:09;32.80;;;13.50;;
68284;SDS011;55114;52.052;5.238;2023-02-15T00:31:36;30.27;;;13.05;;
68284;SDS011;55114;52.052;5.238;2023-02-15T00:34:11;32.43;;;13.37;;
68284;SDS011;55114;52.052;5.238;2023-02-15T00:36:39;36.78;;;13.48;;
68284;SDS011;55114;52.052;5.238;2023-02-15T00:39:06;34.05;;;13.50;;
68284;SDS011;55114;52.052;5.238;2023-02-15T00:41:34;33.63;;;13.60;;
68284;SDS011;55114;52.052;5.238;2023-02-15T00:44:01;34.67;;;13.38;;
68284;SDS011;55114;52.052;5.238;2023-02-15T00:46:29;33.83;;;14.00;;
68284;SDS011;55114;52.052;5.238;2023-02-15T00:48:56;34.80;;;14.30;;
68284;SDS011;55114;52.052;5.238;2023-02-15T00:51:23;36.08;;;14.00;;
68284;SDS011;55114;52.052;5.238;2023-02-15T00:53:50;39.20;;;14.73;;
68284;SDS011;55114;52.052;5.238;2023-02-15T00:56:18;34.90;;;14.30;;
68284;SDS011;55114;52.052;5.238;2023-02-15T00:58:45;36.50;;;14.30;;
68284;SDS011;55114;52.052;5.238;2023-02-15T01:01:14;32.35;;;13.23;;
68284;SDS011;55114;52.052;5.238;2023-02-15T01:03:41;31.02;;;12.70;;
68284;SDS011;55114;52.052;5.238;2023-02-15T01:06:09;32.10;;;13.55;;
68284;SDS011;55114;52.052;5.238;2023-02-15T01:08:37;39.15;;;13.45;;
68284;SDS011;55114;52.052;5.238;2023-02-15T01:11:09;35.00;;;13.20;;
68284;SDS011;55114;52.052;5.238;2023-02-15T01:13:36;31.35;;;13.10;;
68284;SDS011;55114;52.052;5.238;2023-02-15T01:16:04;34.10;;;13.52;;
68284;SDS011;55114;52.052;5.238;2023-02-15T01:18:31;32.50;;;13.35;;
68284;SDS011;55114;52.052;5.238;2023-02-15T01:20:59;33.20;;;12.95;;
68284;SDS011;55114;52.052;5.238;2023-02-15T01:23:26;35.30;;;14.13;;
68284;SDS011;55114;52.052;5.238;2023-02-15T01:25:53;32.92;;;13.55;;
68284;SDS011;55114;52.052;5.238;2023-02-15T01:28:21;32.17;;;13.15;;
68284;SDS011;55114;52.052;5.238;2023-02-15T01:30:48;30.15;;;13.25;;
68284;SDS011;55114;52.052;5.238;2023-02-15T01:33:15;35.25;;;13.30;;
68284;SDS011;55114;52.052;5.238;2023-02-15T01:35:45;34.87;;;13.80;;
68284;SDS011;55114;52.052;5.238;2023-02-15T01:38:14;34.83;;;13.15;;
68284;SDS011;55114;52.052;5.238;2023-02-15T01:40:41;36.33;;;13.63;;
68284;SDS011;55114;52.052;5.238;2023-02-15T01:43:09;41.60;;;16.08;;
68284;SDS011;55114;52.052;5.238;2023-02-15T01:45:37;41.13;;;15.30;;
68284;SDS011;55114;52.052;5.238;2023-02-15T01:50:38;39.20;;;14.55;;
68284;SDS011;55114;52.052;5.238;2023-02-15T01:53:19;42.65;;;15.55;;
68284;SDS011;55114;52.052;5.238;2023-02-15T01:55:57;40.33;;;15.10;;
68284;SDS011;55114;52.052;5.238;2023-02-15T01:58:27;36.90;;;14.55;;
68284;SDS011;55114;52.052;5.238;2023-02-15T02:00:55;45.30;;;15.50;;
68284;SDS011;55114;52.052;5.238;2023-02-15T02:03:31;46.28;;;16.70;;
68284;SDS011;55114;52.052;5.238;2023-02-15T02:06:03;47.80;;;16.50;;
68284;SDS011;55114;52.052;5.238;2023-02-15T02:08:30;41.97;;;16.08;;
68284;SDS011;55114;52.052;5.238;2023-02-15T02:10:58;46.15;;;15.98;;
68284;SDS011;55114;52.052;5.238;2023-02-15T02:13:25;43.43;;;15.97;;
68284;SDS011;55114;52.052;5.238;2023-02-15T02:36:43;55.67;;;18.48;;
68284;SDS011;55114;52.052;5.238;2023-02-15T02:42:00;47.90;;;17.08;;
68284;SDS011;55114;52.052;5.238;2023-02-15T02:44:30;55.13;;;19.40;;
68284;SDS011;55114;52.052;5.238;2023-02-15T02:47:09;55.85;;;18.40;;
68284;SDS011;55114;52.052;5.238;2023-02-15T02:49:38;48.55;;;17.30;;
68284;SDS011;55114;52.052;5.238;2023-02-15T02:52:07;52.53;;;17.70;;
68284;SDS011;55114;52.052;5.238;2023-02-15T02:54:53;55.35;;;17.85;;
68284;SDS011;55114;52.052;5.238;2023-02-15T02:57:21;57.42;;;18.38;;
68284;SDS011;55114;52.052;5.238;2023-02-15T02:59:49;59.40;;;19.15;;
68284;SDS011;55114;52.052;5.238;2023-02-15T03:02:21;54.03;;;17.88;;
68284;SDS011;55114;52.052;5.238;2023-02-15T03:04:53;52.57;;;16.70;;
68284;SDS011;55114;52.052;5.238;2023-02-15T03:07:24;46.35;;;15.70;;
68284;SDS011;55114;52.052;5.238;2023-02-15T03:09:55;46.35;;;16.83;;
68284;SDS011;55114;52.052;5.238;2023-02-15T03:12:24;54.90;;;19.30;;
68284;SDS011;55114;52.052;5.238;2023-02-15T03:14:54;56.72;;;18.67;;
68284;SDS011;55114;52.052;5.238;2023-02-15T03:17:23;53.93;;;18.37;;
68284;SDS011;55114;52.052;5.238;2023-02-15T03:19:52;51.05;;;17.60;;
68284;SDS011;55114;52.052;5.238;2023-02-15T03:22:23;58.42;;;18.65;;
68284;SDS011;55114;52.052;5.238;2023-02-15T03:25:03;57.15;;;19.17;;
68284;SDS011;55114;52.052;5.238;2023-02-15T03:27:33;60.42;;;18.55;;
68284;SDS011;55114;52.052;5.238;2023-02-15T03:30:03;53.37;;;16.73;;
68284;SDS011;55114;52.052;5.238;2023-02-15T03:32:32;59.60;;;18.80;;
68284;SDS011;55114;52.052;5.238;2023-02-15T03:35:00;52.17;;;18.33;;
68284;SDS011;55114;52.052;5.238;2023-02-15T03:39:56;53.45;;;17.02;;
68284;SDS011;55114;52.052;5.238;2023-02-15T03:42:45;55.07;;;17.17;;
68284;SDS011;55114;52.052;5.238;2023-02-15T03:45:14;51.35;;;17.50;;
68284;SDS011;55114;52.052;5.238;2023-02-15T03:47:43;49.75;;;16.85;;
68284;SDS011;55114;52.052;5.238;2023-02-15T03:50:13;53.53;;;17.35;;
68284;SDS011;55114;52.052;5.238;2023-02-15T03:53:01;48.63;;;16.70;;
68284;SDS011;55114;52.052;5.238;2023-02-15T03:55:29;50.50;;;17.10;;
68284;SDS011;55114;52.052;5.238;2023-02-15T03:57:57;50.45;;;17.40;;
68284;SDS011;55114;52.052;5.238;2023-02-15T04:00:44;51.63;;;17.02;;
68284;SDS011;55114;52.052;5.238;2023-02-15T04:03:43;46.88;;;16.02;;
68284;SDS011;55114;52.052;5.238;2023-02-15T04:06:11;46.85;;;16.17;;
68284;SDS011;55114;52.052;5.238;2023-02-15T04:08:38;48.83;;;16.17;;
68284;SDS011;55114;52.052;5.238;2023-02-15T04:11:24;45.92;;;16.10;;
68284;SDS011;55114;52.052;5.238;2023-02-15T04:13:51;46.80;;;16.83;;
68284;SDS011;55114;52.052;5.238;2023-02-15T04:16:25;53.38;;;16.88;;
68284;SDS011;55114;52.052;5.238;2023-02-15T04:18:56;48.17;;;16.33;;
68284;SDS011;55114;52.052;5.238;2023-02-15T04:21:41;46.57;;;15.77;;
68284;SDS011;55114;52.052;5.238;2023-02-15T04:24:27;50.70;;;15.95;;
68284;SDS011;55114;52.052;5.238;2023-02-15T04:27:13;47.40;;;15.38;;
68284;SDS011;55114;52.052;5.238;2023-02-15T04:29:42;41.60;;;15.60;;
68284;SDS011;55114;52.052;5.238;2023-02-15T04:32:09;44.17;;;15.70;;
68284;SDS011;55114;52.052;5.238;2023-02-15T04:34:37;41.13;;;14.83;;
68284;SDS011;55114;52.052;5.238;2023-02-15T04:37:04;44.38;;;15.75;;
68284;SDS011;55114;52.052;5.238;2023-02-15T04:39:31;43.63;;;14.73;;
68284;SDS011;55114;52.052;5.238;2023-02-15T04:41:58;44.80;;;15.38;;
68284;SDS011;55114;52.052;5.238;2023-02-15T04:44:25;42.85;;;14.68;;
68284;SDS011;55114;52.052;5.238;2023-02-15T04:46:52;42.90;;;15.47;;
68284;SDS011;55114;52.052;5.238;2023-02-15T04:49:20;47.53;;;15.02;;
68284;SDS011;55114;52.052;5.238;2023-02-15T04:51:48;44.67;;;15.18;;
68284;SDS011;55114;52.052;5.238;2023-02-15T04:54:15;47.53;;;15.48;;
68284;SDS011;55114;52.052;5.238;2023-02-15T04:56:42;46.30;;;16.58;;
68284;SDS011;55114;52.052;5.238;2023-02-15T04:59:10;42.27;;;15.73;;
68284;SDS011;55114;52.052;5.238;2023-02-15T05:01:37;42.88;;;15.43;;
68284;SDS011;55114;52.052;5.238;2023-02-15T05:04:04;46.40;;;15.20;;
68284;SDS011;55114;52.052;5.238;2023-02-15T05:06:31;44.50;;;15.35;;
68284;SDS011;55114;52.052;5.238;2023-02-15T05:08:58;42.80;;;14.82;;
68284;SDS011;55114;52.052;5.238;2023-02-15T05:11:26;45.30;;;16.00;;
68284;SDS011;55114;52.052;5.238;2023-02-15T05:13:53;40.78;;;15.35;;
68284;SDS011;55114;52.052;5.238;2023-02-15T05:16:20;44.83;;;15.13;;
68284;SDS011;55114;52.052;5.238;2023-02-15T05:18:47;44.92;;;15.70;;
68284;SDS011;55114;52.052;5.238;2023-02-15T05:21:15;41.67;;;15.48;;
68284;SDS011;55114;52.052;5.238;2023-02-15T05:23:42;49.63;;;15.90;;
68284;SDS011;55114;52.052;5.238;2023-02-15T05:26:10;45.53;;;15.38;;
68284;SDS011;55114;52.052;5.238;2023-02-15T05:28:57;49.80;;;16.00;;
68284;SDS011;55114;52.052;5.238;2023-02-15T05:31:24;39.00;;;13.93;;
68284;SDS011;55114;52.052;5.238;2023-02-15T05:33:51;42.95;;;15.02;;
68284;SDS011;55114;52.052;5.238;2023-02-15T05:36:19;43.73;;;15.03;;
68284;SDS011;55114;52.052;5.238;2023-02-15T05:38:46;42.38;;;15.27;;
68284;SDS011;55114;52.052;5.238;2023-02-15T05:41:13;46.63;;;15.32;;
68284;SDS011;55114;52.052;5.238;2023-02-15T05:43:40;44.47;;;15.05;;
68284;SDS011;55114;52.052;5.238;2023-02-15T05:46:08;43.15;;;14.25;;
68284;SDS011;55114;52.052;5.238;2023-02-15T05:48:36;43.70;;;15.13;;
68284;SDS011;55114;52.052;5.238;2023-02-15T05:51:10;40.78;;;14.25;;
68284;SDS011;55114;52.052;5.238;2023-02-15T05:53:42;37.20;;;13.55;;
68284;SDS011;55114;52.052;5.238;2023-02-15T05:56:09;43.67;;;13.75;;
68284;SDS011;55114;52.052;5.238;2023-02-15T05:58:40;44.05;;;14.02;;
68284;SDS011;55114;52.052;5.238;2023-02-15T06:01:12;44.83;;;14.60;;
68284;SDS011;55114;52.052;5.238;2023-02-15T06:03:39;36.55;;;12.00;;
68284;SDS011;55114;52.052;5.238;2023-02-15T06:06:07;42.95;;;14.20;;
68284;SDS011;55114;52.052;5.238;2023-02-15T06:08:34;37.05;;;13.95;;
68284;SDS011;55114;52.052;5.238;2023-02-15T06:11:02;38.33;;;13.32;;
68284;SDS011;55114;52.052;5.238;2023-02-15T06:13:29;45.17;;;14.67;;
68284;SDS011;55114;52.052;5.238;2023-02-15T06:15:57;41.15;;;14.55;;
68284;SDS011;55114;52.052;5.238;2023-02-15T06:18:24;43.80;;;14.77;;
68284;SDS011;55114;52.052;5.238;2023-02-15T06:20:51;40.47;;;13.85;;
68284;SDS011;55114;52.052;5.238;2023-02-15T06:23:19;34.55;;;12.38;;
68284;SDS011;55114;52.052;5.238;2023-02-15T06:25:46;47.50;;;14.63;;
68284;SDS011;55114;52.052;5.238;2023-02-15T06:28:13;39.65;;;13.65;;
68284;SDS011;55114;52.052;5.238;2023-02-15T06:30:40;40.45;;;12.55;;
68284;SDS011;55114;52.052;5.238;2023-02-15T06:33:08;39.75;;;12.93;;
68284;SDS011;55114;52.052;5.238;2023-02-15T06:35:35;37.00;;;13.13;;
68284;SDS011;55114;52.052;5.238;2023-02-15T06:38:02;39.30;;;14.47;;
68284;SDS011;55114;52.052;5.238;2023-02-15T06:40:29;41.58;;;14.43;;
68284;SDS011;55114;52.052;5.238;2023-02-15T06:42:56;39.05;;;13.27;;
68284;SDS011;55114;52.052;5.238;2023-02-15T06:45:23;42.28;;;14.43;;
68284;SDS011;55114;52.052;5.238;2023-02-15T06:47:50;39.30;;;14.02;;
68284;SDS011;55114;52.052;5.238;2023-02-15T06:50:18;39.90;;;13.63;;
68284;SDS011;55114;52.052;5.238;2023-02-15T06:52:45;36.65;;;13.60;;
68284;SDS011;55114;52.052;5.238;2023-02-15T06:55:12;40.30;;;14.02;;
68284;SDS011;55114;52.052;5.238;2023-02-15T06:57:39;42.80;;;15.65;;
68284;SDS011;55114;52.052;5.238;2023-02-15T07:00:07;41.13;;;14.00;;
68284;SDS011;55114;52.052;5.238;2023-02-15T07:02:35;43.03;;;14.63;;
68284;SDS011;55114;52.052;5.238;2023-02-15T07:05:02;42.88;;;14.98;;
68284;SDS011;55114;52.052;5.238;2023-02-15T07:07:31;40.13;;;13.57;;
68284;SDS011;55114;52.052;5.238;2023-02-15T07:09:58;39.53;;;13.60;;
68284;SDS011;55114;52.052;5.238;2023-02-15T07:12:25;43.60;;;14.88;;
68284;SDS011;55114;52.052;5.238;2023-02-15T07:15:08;42.57;;;13.93;;
68284;SDS011;55114;52.052;5.238;2023-02-15T07:17:36;44.80;;;14.15;;
68284;SDS011;55114;52.052;5.238;2023-02-15T07:20:09;39.35;;;13.30;;
68284;SDS011;55114;52.052;5.238;2023-02-15T07:22:37;44.45;;;14.80;;
68284;SDS011;55114;52.052;5.238;2023-02-15T07:25:05;47.42;;;15.77;;
68284;SDS011;55114;52.052;5.238;2023-02-15T07:27:32;46.50;;;15.73;;
68284;SDS011;55114;52.052;5.238;2023-02-15T07:30:00;49.25;;;15.27;;
68284;SDS011;55114;52.052;5.238;2023-02-15T07:32:28;50.40;;;14.90;;
68284;SDS011;55114;52.052;5.238;2023-02-15T07:34:56;43.00;;;15.05;;
68284;SDS011;55114;52.052;5.238;2023-02-15T07:37:23;47.45;;;15.35;;
68284;SDS011;55114;52.052;5.238;2023-02-15T07:39:50;47.40;;;15.60;;
68284;SDS011;55114;52.052;5.238;2023-02-15T07:42:17;48.47;;;15.50;;
68284;SDS011;55114;52.052;5.238;2023-02-15T07:44:46;49.67;;;15.65;;
68284;SDS011;55114;52.052;5.238;2023-02-15T07:47:13;44.80;;;15.40;;
68284;SDS011;55114;52.052;5.238;2023-02-15T07:49:40;41.58;;;14.18;;
68284;SDS011;55114;52.052;5.238;2023-02-15T07:52:07;44.37;;;15.80;;
68284;SDS011;55114;52.052;5.238;2023-02-15T07:54:35;48.15;;;16.60;;
68284;SDS011;55114;52.052;5.238;2023-02-15T07:57:02;53.53;;;16.30;;
68284;SDS011;55114;52.052;5.238;2023-02-15T07:59:29;53.65;;;17.42;;
68284;SDS011;55114;52.052;5.238;2023-02-15T08:01:56;51.40;;;16.02;;
68284;SDS011;55114;52.052;5.238;2023-02-15T08:04:23;51.40;;;17.13;;
68284;SDS011;55114;52.052;5.238;2023-02-15T08:06:54;51.03;;;17.20;;
68284;SDS011;55114;52.052;5.238;2023-02-15T08:09:21;53.28;;;16.88;;
68284;SDS011;55114;52.052;5.238;2023-02-15T08:11:49;44.75;;;16.10;;
68284;SDS011;55114;52.052;5.238;2023-02-15T08:14:17;44.22;;;16.63;;
68284;SDS011;55114;52.052;5.238;2023-02-15T08:16:48;47.27;;;16.17;;
68284;SDS011;55114;52.052;5.238;2023-02-15T08:19:20;40.78;;;15.23;;
68284;SDS011;55114;52.052;5.238;2023-02-15T08:21:54;39.97;;;15.68;;
68284;SDS011;55114;52.052;5.238;2023-02-15T08:24:25;36.33;;;16.23;;
68284;SDS011;55114;52.052;5.238;2023-02-15T08:26:53;43.33;;;16.15;;
68284;SDS011;55114;52.052;5.238;2023-02-15T08:29:21;40.63;;;15.50;;
68284;SDS011;55114;52.052;5.238;2023-02-15T08:31:50;38.33;;;14.93;;
68284;SDS011;55114;52.052;5.238;2023-02-15T08:34:19;34.90;;;14.75;;
68284;SDS011;55114;52.052;5.238;2023-02-15T08:36:47;37.03;;;15.48;;
68284;SDS011;55114;52.052;5.238;2023-02-15T08:39:14;36.80;;;15.45;;
68284;SDS011;55114;52.052;5.238;2023-02-15T08:41:42;36.33;;;15.60;;
68284;SDS011;55114;52.052;5.238;2023-02-15T08:44:10;35.13;;;14.95;;
68284;SDS011;55114;52.052;5.238;2023-02-15T08:46:38;39.35;;;14.95;;
68284;SDS011;55114;52.052;5.238;2023-02-15T08:49:05;33.90;;;14.95;;
68284;SDS011;55114;52.052;5.238;2023-02-15T08:51:35;35.38;;;14.90;;
68284;SDS011;55114;52.052;5.238;2023-02-15T08:54:04;34.22;;;14.10;;
68284;SDS011;55114;52.052;5.238;2023-02-15T08:56:33;34.42;;;15.88;;
68284;SDS011;55114;52.052;5.238;2023-02-15T08:59:00;30.98;;;13.52;;
68284;SDS011;55114;52.052;5.238;2023-02-15T09:01:29;36.45;;;15.38;;
68284;SDS011;55114;52.052;5.238;2023-02-15T09:04:03;32.78;;;15.18;;
68284;SDS011;55114;52.052;5.238;2023-02-15T09:06:31;35.75;;;15.38;;
68284;SDS011;55114;52.052;5.238;2023-02-15T09:08:58;33.80;;;15.23;;
68284;SDS011;55114;52.052;5.238;2023-02-15T09:11:26;37.72;;;15.68;;
68284;SDS011;55114;52.052;5.238;2023-02-15T09:13:55;35.35;;;15.18;;
68284;SDS011;55114;52.052;5.238;2023-02-15T09:16:23;34.10;;;14.40;;
68284;SDS011;55114;52.052;5.238;2023-02-15T09:18:51;38.25;;;16.65;;
68284;SDS011;55114;52.052;5.238;2023-02-15T09:21:19;39.15;;;16.92;;
68284;SDS011;55114;52.052;5.238;2023-02-15T09:23:48;33.40;;;15.25;;
68284;SDS011;55114;52.052;5.238;2023-02-15T09:26:17;36.85;;;16.10;;
68284;SDS011;55114;52.052;5.238;2023-02-15T09:28:44;28.52;;;13.20;;
68284;SDS011;55114;52.052;5.238;2023-02-15T09:31:15;35.25;;;16.00;;
68284;SDS011;55114;52.052;5.238;2023-02-15T09:33:43;39.83;;;16.35;;
68284;SDS011;55114;52.052;5.238;2023-02-15T09:38:41;37.78;;;16.10;;
68284;SDS011;55114;52.052;5.238;2023-02-15T09:41:32;37.40;;;16.27;;
68284;SDS011;55114;52.052;5.238;2023-02-15T09:49:06;37.67;;;16.05;;
68284;SDS011;55114;52.052;5.238;2023-02-15T09:54:07;34.10;;;16.00;;
68284;SDS011;55114;52.052;5.238;2023-02-15T09:56:38;38.63;;;16.50;;
68284;SDS011;55114;52.052;5.238;2023-02-15T10:01:36;34.72;;;15.35;;
68284;SDS011;55114;52.052;5.238;2023-02-15T10:06:41;39.08;;;17.00;;
68284;SDS011;55114;52.052;5.238;2023-02-15T10:09:28;35.30;;;16.73;;
68284;SDS011;55114;52.052;5.238;2023-02-15T10:27:33;34.92;;;16.08;;
68284;SDS011;55114;52.052;5.238;2023-02-15T10:32:38;35.90;;;16.38;;
68284;SDS011;55114;52.052;5.238;2023-02-15T10:35:15;36.30;;;16.88;;
68284;SDS011;55114;52.052;5.238;2023-02-15T10:40:39;35.33;;;16.85;;
68284;SDS011;55114;52.052;5.238;2023-02-15T10:48:52;39.15;;;17.75;;
68284;SDS011;55114;52.052;5.238;2023-02-15T10:56:49;38.13;;;17.17;;
68284;SDS011;55114;52.052;5.238;2023-02-15T10:59:27;38.38;;;16.75;;
68284;SDS011;55114;52.052;5.238;2023-02-15T11:02:02;42.90;;;17.38;;
68284;SDS011;55114;52.052;5.238;2023-02-15T11:09:51;36.22;;;17.25;;
68284;SDS011;55114;52.052;5.238;2023-02-15T11:12:20;36.40;;;17.33;;
68284;SDS011;55114;52.052;5.238;2023-02-15T11:17:19;34.85;;;17.27;;
68284;SDS011;55114;52.052;5.238;2023-02-15T11:22:19;36.30;;;17.98;;
68284;SDS011;55114;52.052;5.238;2023-02-15T11:24:46;37.35;;;17.75;;
68284;SDS011;55114;52.052;5.238;2023-02-15T11:27:28;39.95;;;17.67;;
68284;SDS011;55114;52.052;5.238;2023-02-15T11:32:43;37.67;;;17.67;;
68284;SDS011;55114;52.052;5.238;2023-02-15T11:37:49;34.78;;;17.25;;
68284;SDS011;55114;52.052;5.238;2023-02-15T11:42:51;38.40;;;17.53;;
68284;SDS011;55114;52.052;5.238;2023-02-15T11:45:30;35.45;;;16.77;;
68284;SDS011;55114;52.052;5.238;2023-02-15T11:47:58;36.22;;;17.75;;
68284;SDS011;55114;52.052;5.238;2023-02-15T11:50:27;37.20;;;17.20;;
68284;SDS011;55114;52.052;5.238;2023-02-15T11:52:58;35.10;;;17.60;;
68284;SDS011;55114;52.052;5.238;2023-02-15T11:55:27;35.87;;;18.07;;
68284;SDS011;55114;52.052;5.238;2023-02-15T12:00:30;35.42;;;17.08;;
68284;SDS011;55114;52.052;5.238;2023-02-15T12:03:03;37.20;;;17.40;;
68284;SDS011;55114;52.052;5.238;2023-02-15T12:05:31;34.60;;;17.65;;
68284;SDS011;55114;52.052;5.238;2023-02-15T12:08:01;34.43;;;17.27;;
68284;SDS011;55114;52.052;5.238;2023-02-15T12:10:39;36.33;;;17.45;;
68284;SDS011;55114;52.052;5.238;2023-02-15T12:13:15;35.92;;;17.88;;
68284;SDS011;55114;52.052;5.238;2023-02-15T12:15:46;37.20;;;18.13;;
68284;SDS011;55114;52.052;5.238;2023-02-15T12:18:19;37.45;;;18.65;;
68284;SDS011;55114;52.052;5.238;2023-02-15T12:20:47;34.73;;;17.53;;
68284;SDS011;55114;52.052;5.238;2023-02-15T12:23:16;36.67;;;18.23;;
68284;SDS011;55114;52.052;5.238;2023-02-15T12:30:50;38.53;;;18.77;;
68284;SDS011;55114;52.052;5.238;2023-02-15T12:33:34;37.50;;;19.20;;
68284;SDS011;55114;52.052;5.238;2023-02-15T12:36:04;36.72;;;18.58;;
68284;SDS011;55114;52.052;5.238;2023-02-15T12:38:36;36.38;;;19.10;;
68284;SDS011;55114;52.052;5.238;2023-02-15T12:41:25;38.22;;;18.60;;
68284;SDS011;55114;52.052;5.238;2023-02-15T12:44:04;36.72;;;19.20;;
68284;SDS011;55114;52.052;5.238;2023-02-15T12:46:32;32.83;;;17.67;;
68284;SDS011;55114;52.052;5.238;2023-02-15T12:51:47;38.47;;;19.73;;
68284;SDS011;55114;52.052;5.238;2023-02-15T12:54:16;35.63;;;19.33;;
68284;SDS011;55114;52.052;5.238;2023-02-15T12:56:48;39.42;;;20.13;;
68284;SDS011;55114;52.052;5.238;2023-02-15T12:59:15;35.57;;;18.53;;
68284;SDS011;55114;52.052;5.238;2023-02-15T13:01:48;40.65;;;19.63;;
68284;SDS011;55114;52.052;5.238;2023-02-15T13:04:26;37.55;;;18.77;;
68284;SDS011;55114;52.052;5.238;2023-02-15T13:06:55;40.40;;;19.25;;
68284;SDS011;55114;52.052;5.238;2023-02-15T13:11:51;40.00;;;19.67;;
68284;SDS011;55114;52.052;5.238;2023-02-15T13:14:20;36.58;;;18.80;;
68284;SDS011;55114;52.052;5.238;2023-02-15T13:16:50;51.33;;;20.10;;
68284;SDS011;55114;52.052;5.238;2023-02-15T13:19:19;36.90;;;19.05;;
68284;SDS011;55114;52.052;5.238;2023-02-15T13:21:48;36.63;;;18.80;;
68284;SDS011;55114;52.052;5.238;2023-02-15T13:24:22;34.30;;;19.10;;
68284;SDS011;55114;52.052;5.238;2023-02-15T13:26:50;49.25;;;20.23;;
68284;SDS011;55114;52.052;5.238;2023-02-15T13:29:34;38.70;;;18.60;;
68284;SDS011;55114;52.052;5.238;2023-02-15T13:32:10;38.28;;;19.88;;
68284;SDS011;55114;52.052;5.238;2023-02-15T13:34:39;37.58;;;19.60;;
68284;SDS011;55114;52.052;5.238;2023-02-15T13:37:18;40.20;;;20.13;;
68284;SDS011;55114;52.052;5.238;2023-02-15T13:39:47;39.80;;;19.88;;
68284;SDS011;55114;52.052;5.238;2023-02-15T13:47:31;38.20;;;19.23;;
68284;SDS011;55114;52.052;5.238;2023-02-15T13:50:04;35.50;;;17.50;;
68284;SDS011;55114;52.052;5.238;2023-02-15T13:52:33;38.83;;;19.13;;
68284;SDS011;55114;52.052;5.238;2023-02-15T13:57:41;39.50;;;18.92;;
68284;SDS011;55114;52.052;5.238;2023-02-15T14:00:18;39.33;;;18.55;;
68284;SDS011;55114;52.052;5.238;2023-02-15T14:10:47;44.60;;;19.90;;
68284;SDS011;55114;52.052;5.238;2023-02-15T14:18:47;36.45;;;18.85;;
68284;SDS011;55114;52.052;5.238;2023-02-15T14:26:40;38.03;;;20.13;;
68284;SDS011;55114;52.052;5.238;2023-02-15T14:31:44;42.72;;;19.75;;
68284;SDS011;55114;52.052;5.238;2023-02-15T14:34:34;37.60;;;19.77;;
68284;SDS011;55114;52.052;5.238;2023-02-15T14:37:03;37.03;;;19.33;;
68284;SDS011;55114;52.052;5.238;2023-02-15T14:42:30;39.93;;;19.93;;
68284;SDS011;55114;52.052;5.238;2023-02-15T14:45:23;39.75;;;19.80;;
68284;SDS011;55114;52.052;5.238;2023-02-15T14:47:51;39.53;;;19.42;;
68284;SDS011;55114;52.052;5.238;2023-02-15T14:50:43;38.92;;;19.42;;
68284;SDS011;55114;52.052;5.238;2023-02-15T14:55:43;38.53;;;18.83;;
68284;SDS011;55114;52.052;5.238;2023-02-15T14:58:10;43.92;;;20.48;;
68284;SDS011;55114;52.052;5.238;2023-02-15T15:00:39;43.88;;;19.23;;
68284;SDS011;55114;52.052;5.238;2023-02-15T15:03:23;42.30;;;19.92;;
68284;SDS011;55114;52.052;5.238;2023-02-15T15:05:53;43.72;;;20.60;;
68284;SDS011;55114;52.052;5.238;2023-02-15T15:08:29;39.43;;;19.63;;
68284;SDS011;55114;52.052;5.238;2023-02-15T15:11:36;39.58;;;19.02;;
68284;SDS011;55114;52.052;5.238;2023-02-15T15:14:07;40.17;;;19.92;;
68284;SDS011;55114;52.052;5.238;2023-02-15T15:19:03;43.38;;;20.30;;
68284;SDS011;55114;52.052;5.238;2023-02-15T15:29:50;44.25;;;19.75;;
68284;SDS011;55114;52.052;5.238;2023-02-15T15:32:18;45.30;;;20.27;;
68284;SDS011;55114;52.052;5.238;2023-02-15T15:47:46;46.50;;;20.80;;
68284;SDS011;55114;52.052;5.238;2023-02-15T15:50:30;41.50;;;20.95;;
68284;SDS011;55114;52.052;5.238;2023-02-15T15:52:58;42.90;;;20.13;;
68284;SDS011;55114;52.052;5.238;2023-02-15T15:55:27;46.60;;;21.35;;
68284;SDS011;55114;52.052;5.238;2023-02-15T15:57:56;40.65;;;20.52;;
68284;SDS011;55114;52.052;5.238;2023-02-15T16:00:36;42.93;;;20.63;;
68284;SDS011;55114;52.052;5.238;2023-02-15T16:03:12;44.78;;;20.77;;
68284;SDS011;55114;52.052;5.238;2023-02-15T16:05:40;44.08;;;21.20;;
68284;SDS011;55114;52.052;5.238;2023-02-15T16:08:07;51.17;;;21.02;;
68284;SDS011;55114;52.052;5.238;2023-02-15T16:10:34;41.95;;;19.88;;
68284;SDS011;55114;52.052;5.238;2023-02-15T16:13:04;42.63;;;20.60;;
68284;SDS011;55114;52.052;5.238;2023-02-15T16:15:36;39.85;;;20.05;;
68284;SDS011;55114;52.052;5.238;2023-02-15T16:18:13;42.05;;;20.33;;
68284;SDS011;55114;52.052;5.238;2023-02-15T16:20:46;42.78;;;20.25;;
68284;SDS011;55114;52.052;5.238;2023-02-15T16:28:25;42.03;;;20.55;;
68284;SDS011;55114;52.052;5.238;2023-02-15T16:31:12;43.85;;;20.58;;
68284;SDS011;55114;52.052;5.238;2023-02-15T16:33:40;44.35;;;20.98;;
68284;SDS011;55114;52.052;5.238;2023-02-15T16:36:26;42.83;;;20.95;;
68284;SDS011;55114;52.052;5.238;2023-02-15T16:41:25;40.30;;;20.42;;
68284;SDS011;55114;52.052;5.238;2023-02-15T16:43:54;42.35;;;20.55;;
68284;SDS011;55114;52.052;5.238;2023-02-15T16:46:25;46.58;;;20.90;;
68284;SDS011;55114;52.052;5.238;2023-02-15T16:48:54;45.13;;;21.75;;
68284;SDS011;55114;52.052;5.238;2023-02-15T16:51:27;50.78;;;24.08;;
68284;SDS011;55114;52.052;5.238;2023-02-15T16:53:54;46.28;;;21.02;;
68284;SDS011;55114;52.052;5.238;2023-02-15T16:56:26;42.83;;;20.20;;
68284;SDS011;55114;52.052;5.238;2023-02-15T16:58:54;43.08;;;19.88;;
68284;SDS011;55114;52.052;5.238;2023-02-15T17:01:24;46.22;;;21.05;;
68284;SDS011;55114;52.052;5.238;2023-02-15T17:04:10;45.33;;;20.17;;
68284;SDS011;55114;52.052;5.238;2023-02-15T17:06:38;48.67;;;21.75;;
68284;SDS011;55114;52.052;5.238;2023-02-15T17:09:05;43.72;;;20.35;;
68284;SDS011;55114;52.052;5.238;2023-02-15T17:11:41;42.50;;;19.67;;
68284;SDS011;55114;52.052;5.238;2023-02-15T17:16:36;43.92;;;20.65;;
68284;SDS011;55114;52.052;5.238;2023-02-15T17:19:08;46.13;;;20.48;;
68284;SDS011;55114;52.052;5.238;2023-02-15T17:21:47;46.45;;;20.08;;
68284;SDS011;55114;52.052;5.238;2023-02-15T17:24:16;46.58;;;20.90;;
68284;SDS011;55114;52.052;5.238;2023-02-15T17:26:45;43.53;;;20.88;;
68284;SDS011;55114;52.052;5.238;2023-02-15T17:29:30;45.50;;;20.67;;
68284;SDS011;55114;52.052;5.238;2023-02-15T17:31:58;48.03;;;21.15;;
68284;SDS011;55114;52.052;5.238;2023-02-15T17:34:40;43.10;;;20.63;;
68284;SDS011;55114;52.052;5.238;2023-02-15T17:37:28;46.85;;;21.13;;